createdAt,value
2022-12-03T00:02:03.217Z,30.80
2022-12-03T00:04:30.485Z,29.85
2022-12-03T00:06:57.796Z,26.70
2022-12-03T00:09:25.029Z,26.13
2022-12-03T00:11:52.382Z,28.92
2022-12-03T00:14:19.613Z,31.83
2022-12-03T00:16:47.568Z,28.52
2022-12-03T00:19:15.113Z,32.55
2022-12-03T00:21:42.409Z,27.17
2022-12-03T00:24:09.668Z,28.20
2022-12-03T00:26:36.991Z,28.00
2022-12-03T00:29:04.243Z,29.77
2022-12-03T00:31:31.593Z,32.60
2022-12-03T00:33:58.850Z,30.35
2022-12-03T00:36:26.125Z,30.15
2022-12-03T00:38:54.416Z,32.07
2022-12-03T00:41:21.748Z,31.52
2022-12-03T00:43:48.955Z,27.90
2022-12-03T00:46:21.103Z,30.65
2022-12-03T00:48:48.955Z,30.63
2022-12-03T00:51:16.145Z,29.27
2022-12-03T00:53:43.419Z,33.55
2022-12-03T00:56:10.883Z,32.58
2022-12-03T00:58:38.147Z,29.50
2022-12-03T01:01:05.459Z,26.52
2022-12-03T01:03:32.818Z,26.43
2022-12-03T01:06:00.249Z,27.85
2022-12-03T01:08:27.567Z,26.77
2022-12-03T01:10:54.817Z,27.58
2022-12-03T01:13:22.108Z,26.80
2022-12-03T01:15:49.404Z,30.20
2022-12-03T01:18:16.727Z,28.15
2022-12-03T01:20:44.002Z,26.75
2022-12-03T01:23:13.516Z,29.52
2022-12-03T01:25:40.761Z,30.38
2022-12-03T01:28:08.113Z,30.53
2022-12-03T01:30:55.422Z,30.08
2022-12-03T01:33:22.764Z,30.17
2022-12-03T01:35:50.091Z,26.65
2022-12-03T01:38:17.629Z,29.52
2022-12-03T01:40:45.201Z,27.63
2022-12-03T01:43:12.484Z,27.15
2022-12-03T01:45:39.699Z,25.65
2022-12-03T01:48:06.958Z,24.42
2022-12-03T01:50:34.218Z,24.50
2022-12-03T01:53:02.637Z,26.60
2022-12-03T01:55:29.933Z,29.02
2022-12-03T01:57:59.036Z,31.15
2022-12-03T02:00:29.702Z,28.27
2022-12-03T02:03:00.903Z,24.05
2022-12-03T02:05:29.940Z,25.60
2022-12-03T02:07:57.481Z,24.27
2022-12-03T02:10:33.971Z,23.90
2022-12-03T02:13:10.447Z,22.20
2022-12-03T02:15:38.782Z,19.08
2022-12-03T02:18:06.118Z,21.67
2022-12-03T02:20:33.672Z,27.58
2022-12-03T02:23:23.966Z,26.83
2022-12-03T02:25:51.303Z,28.98
2022-12-03T02:28:18.595Z,23.83
2022-12-03T02:30:45.883Z,26.47
2022-12-03T02:33:13.144Z,26.92
2022-12-03T02:35:40.534Z,27.55
2022-12-03T02:38:23.315Z,27.45
2022-12-03T02:40:52.678Z,27.05
2022-12-03T02:43:19.955Z,30.07
2022-12-03T02:45:48.789Z,25.42
2022-12-03T02:48:16.726Z,25.75
2022-12-03T02:50:48.365Z,25.67
2022-12-03T02:53:18.368Z,26.33
2022-12-03T02:55:45.687Z,27.70
2022-12-03T02:58:12.986Z,28.13
2022-12-03T03:00:40.707Z,26.65
2022-12-03T03:03:07.954Z,27.20
2022-12-03T03:05:36.488Z,27.67
2022-12-03T03:08:03.826Z,26.57
2022-12-03T03:10:31.285Z,29.80
2022-12-03T03:12:58.504Z,26.13
2022-12-03T03:15:25.807Z,27.95
2022-12-03T03:17:53.135Z,32.85
2022-12-03T03:20:20.540Z,29.17
2022-12-03T03:22:47.782Z,25.52
2022-12-03T03:25:17.136Z,32.00
2022-12-03T03:27:44.360Z,29.63
2022-12-03T03:30:12.057Z,29.67
2022-12-03T03:32:39.380Z,30.00
2022-12-03T03:35:08.889Z,26.10
2022-12-03T03:37:36.147Z,26.85
2022-12-03T03:40:03.629Z,25.52
2022-12-03T03:42:30.846Z,27.35
2022-12-03T03:44:58.093Z,26.73
2022-12-03T03:47:25.814Z,24.95
2022-12-03T03:49:53.229Z,30.80
2022-12-03T03:52:20.477Z,28.77
2022-12-03T03:54:47.790Z,30.15
2022-12-03T03:57:15.042Z,32.63
2022-12-03T03:59:42.381Z,28.10
2022-12-03T04:02:23.036Z,29.58
2022-12-03T04:04:50.678Z,28.38
2022-12-03T04:07:18.143Z,28.27
2022-12-03T04:09:45.498Z,30.43
2022-12-03T04:12:31.259Z,29.08
2022-12-03T04:14:58.516Z,27.00
2022-12-03T04:17:25.963Z,28.70
2022-12-03T04:19:53.330Z,26.15
2022-12-03T04:22:39.337Z,32.03
2022-12-03T04:25:30.844Z,27.63
2022-12-03T04:28:16.807Z,26.83
2022-12-03T04:30:44.219Z,28.80
2022-12-03T04:33:30.079Z,28.73
2022-12-03T04:35:57.475Z,28.43
2022-12-03T04:38:24.783Z,28.02
2022-12-03T04:41:00.935Z,32.03
2022-12-03T04:43:28.849Z,32.60
2022-12-03T04:45:56.072Z,39.92
2022-12-03T04:48:23.675Z,36.20
2022-12-03T04:50:50.881Z,34.03
2022-12-03T04:53:18.265Z,31.85
2022-12-03T04:55:45.509Z,34.58
2022-12-03T04:58:12.763Z,39.70
2022-12-03T05:00:40.068Z,36.50
2022-12-03T05:03:07.435Z,40.00
2022-12-03T05:05:34.672Z,38.03
2022-12-03T05:08:02.067Z,37.38
2022-12-03T05:10:29.348Z,34.08
2022-12-03T05:12:56.750Z,34.10
2022-12-03T05:15:23.942Z,34.35
2022-12-03T05:17:51.240Z,36.40
2022-12-03T05:20:36.875Z,35.22
2022-12-03T05:23:04.220Z,37.63
2022-12-03T05:25:31.472Z,41.27
2022-12-03T05:27:58.738Z,39.53
2022-12-03T05:30:26.030Z,40.67
2022-12-03T05:32:53.385Z,45.33
2022-12-03T05:35:20.604Z,45.22
2022-12-03T05:37:47.951Z,37.70
2022-12-03T05:40:15.428Z,45.88
2022-12-03T05:42:54.865Z,41.83
2022-12-03T05:45:25.718Z,43.58
2022-12-03T05:47:53.530Z,44.80
2022-12-03T05:50:21.580Z,35.20
2022-12-03T05:52:48.908Z,38.78
2022-12-03T05:55:16.370Z,43.92
2022-12-03T05:57:43.786Z,42.28
2022-12-03T06:00:30.765Z,37.38
2022-12-03T06:02:58.546Z,46.83
2022-12-03T06:05:26.028Z,48.13
2022-12-03T06:07:53.391Z,34.63
2022-12-03T06:10:24.700Z,39.20
2022-12-03T06:12:52.217Z,40.22
2022-12-03T06:15:19.575Z,45.10
2022-12-03T06:17:47.022Z,38.33
2022-12-03T06:20:15.736Z,36.88
2022-12-03T06:22:43.053Z,33.38
2022-12-03T06:25:10.436Z,38.05
2022-12-03T06:27:37.834Z,37.63
2022-12-03T06:30:06.116Z,39.55
2022-12-03T06:32:33.450Z,33.67
2022-12-03T06:35:00.664Z,34.58
2022-12-03T06:37:27.977Z,35.63
2022-12-03T06:39:55.245Z,36.67
2022-12-03T06:42:22.675Z,31.48
2022-12-03T06:44:49.983Z,35.25
2022-12-03T06:47:17.355Z,37.65
2022-12-03T06:49:44.618Z,32.00
2022-12-03T06:52:11.976Z,33.17
2022-12-03T06:54:39.250Z,37.10
2022-12-03T06:57:06.567Z,29.17
2022-12-03T06:59:36.008Z,37.78
2022-12-03T07:02:04.303Z,32.67
2022-12-03T07:04:31.604Z,34.30
2022-12-03T07:06:58.978Z,36.35
2022-12-03T07:09:26.225Z,33.30
2022-12-03T07:11:53.512Z,30.48
2022-12-03T07:14:20.931Z,36.60
2022-12-03T07:16:48.336Z,38.50
2022-12-03T07:19:15.701Z,41.47
2022-12-03T07:21:43.046Z,30.70
2022-12-03T07:24:10.352Z,34.05
2022-12-03T07:26:37.678Z,31.25
2022-12-03T07:29:04.889Z,32.73
2022-12-03T07:31:32.440Z,33.38
2022-12-03T07:34:01.263Z,38.42
2022-12-03T07:36:28.584Z,40.33
2022-12-03T07:38:55.910Z,34.90
2022-12-03T07:41:23.190Z,37.93
2022-12-03T07:43:50.466Z,36.35
2022-12-03T07:46:17.955Z,41.55
2022-12-03T07:48:45.247Z,39.05
2022-12-03T07:51:15.143Z,42.20
2022-12-03T07:53:43.117Z,45.93
2022-12-03T07:56:10.414Z,37.22
2022-12-03T07:58:37.696Z,36.70
2022-12-03T08:01:05.197Z,36.28
2022-12-03T08:03:32.611Z,37.80
2022-12-03T08:05:59.829Z,42.93
2022-12-03T08:08:27.131Z,38.35
2022-12-03T08:10:54.340Z,39.78
2022-12-03T08:13:21.635Z,39.03
2022-12-03T08:15:48.984Z,36.78
2022-12-03T08:18:18.097Z,39.93
2022-12-03T08:20:46.411Z,42.92
2022-12-03T08:23:21.488Z,40.15
2022-12-03T08:25:49.761Z,46.17
2022-12-03T08:28:24.323Z,40.03
2022-12-03T08:31:02.633Z,37.43
2022-12-03T08:33:35.333Z,42.60
2022-12-03T08:36:16.160Z,42.67
2022-12-03T08:38:52.199Z,43.63
2022-12-03T08:41:38.622Z,43.33
2022-12-03T08:44:32.723Z,39.53
2022-12-03T08:47:09.129Z,41.92
2022-12-03T08:49:36.958Z,47.70
2022-12-03T08:52:11.802Z,44.35
2022-12-03T08:54:39.170Z,47.70
2022-12-03T08:57:21.938Z,45.10
2022-12-03T08:59:49.461Z,34.92
2022-12-03T09:02:20.807Z,46.40
2022-12-03T09:04:48.318Z,54.00
2022-12-03T09:07:15.543Z,54.25
2022-12-03T09:09:42.870Z,49.10
2022-12-03T09:12:10.147Z,52.15
2022-12-03T09:14:37.482Z,47.33
2022-12-03T09:17:04.895Z,49.25
2022-12-03T09:19:32.269Z,43.13
2022-12-03T09:21:59.563Z,46.77
2022-12-03T09:24:26.957Z,45.13
2022-12-03T09:26:54.148Z,47.20
2022-12-03T09:29:21.452Z,44.70
2022-12-03T09:31:48.772Z,43.53
2022-12-03T09:34:16.251Z,44.70
2022-12-03T09:36:43.540Z,45.17
2022-12-03T09:39:10.861Z,41.13
2022-12-03T09:41:38.107Z,47.08
2022-12-03T09:44:05.950Z,50.00
2022-12-03T09:46:35.221Z,50.40
2022-12-03T09:49:03.136Z,43.60
2022-12-03T09:51:34.663Z,46.72
2022-12-03T09:54:03.385Z,44.70
2022-12-03T09:56:30.643Z,46.63
2022-12-03T09:58:57.999Z,41.20
2022-12-03T10:01:29.890Z,38.08
2022-12-03T10:03:58.719Z,42.08
2022-12-03T10:06:25.975Z,39.30
2022-12-03T10:08:54.581Z,42.75
2022-12-03T10:11:24.166Z,43.53
2022-12-03T10:13:53.167Z,41.83
2022-12-03T10:16:21.092Z,42.75
2022-12-03T10:18:55.800Z,39.53
2022-12-03T10:21:27.396Z,44.65
2022-12-03T10:24:29.116Z,38.90
2022-12-03T10:26:58.034Z,38.50
2022-12-03T10:29:31.558Z,43.67
2022-12-03T10:32:05.310Z,42.65
2022-12-03T10:34:33.426Z,40.03
2022-12-03T10:37:12.896Z,45.60
2022-12-03T10:39:55.752Z,42.42
2022-12-03T10:42:28.148Z,52.08
2022-12-03T10:45:08.739Z,44.42
2022-12-03T10:47:36.306Z,39.45
2022-12-03T10:50:05.752Z,54.60
2022-12-03T10:52:33.028Z,45.97
2022-12-03T10:55:00.383Z,43.28
2022-12-03T10:57:27.896Z,36.22
2022-12-03T10:59:55.186Z,44.38
2022-12-03T11:02:23.746Z,51.67
2022-12-03T11:04:51.542Z,55.13
2022-12-03T11:07:20.420Z,54.05
2022-12-03T11:09:49.307Z,43.85
2022-12-03T11:12:27.337Z,57.63
2022-12-03T11:14:55.357Z,43.47
2022-12-03T11:17:48.926Z,49.92
2022-12-03T11:20:25.346Z,45.08
2022-12-03T11:22:56.057Z,47.03
2022-12-03T11:25:26.789Z,51.22
2022-12-03T11:28:12.484Z,52.87
2022-12-03T11:30:48.906Z,57.47
2022-12-03T11:33:25.027Z,72.18
2022-12-03T11:36:04.625Z,60.78
2022-12-03T11:38:38.257Z,60.35
2022-12-03T11:41:20.725Z,67.73
2022-12-03T11:43:56.875Z,56.72
2022-12-03T11:46:39.739Z,48.20
2022-12-03T11:49:29.099Z,56.28
2022-12-03T11:51:57.983Z,59.45
2022-12-03T11:54:25.212Z,73.23
2022-12-03T11:56:52.669Z,79.38
2022-12-03T11:59:20.005Z,70.40
2022-12-03T12:01:47.538Z,54.80
2022-12-03T12:04:35.021Z,64.47
2022-12-03T12:07:02.418Z,77.43
2022-12-03T12:09:49.251Z,69.10
2022-12-03T12:12:53.238Z,72.68
2022-12-03T12:15:35.468Z,70.97
2022-12-03T12:18:37.082Z,88.03
2022-12-03T12:21:38.541Z,72.43
2022-12-03T12:24:27.771Z,63.00
2022-12-03T12:26:55.961Z,66.38
2022-12-03T12:29:23.206Z,77.25
2022-12-03T12:31:53.937Z,72.55
2022-12-03T12:34:21.661Z,72.40
2022-12-03T12:36:48.859Z,73.72
2022-12-03T12:39:16.630Z,73.28
2022-12-03T12:41:43.851Z,81.20
2022-12-03T12:44:11.525Z,72.35
2022-12-03T12:46:47.844Z,82.30
2022-12-03T12:49:15.642Z,85.93
2022-12-03T12:51:44.365Z,86.40
2022-12-03T12:54:12.422Z,80.68
2022-12-03T12:56:42.574Z,83.85
2022-12-03T12:59:20.590Z,75.20
2022-12-03T13:01:49.255Z,83.88
2022-12-03T13:04:22.315Z,76.68
2022-12-03T13:06:51.352Z,66.65
2022-12-03T13:09:20.585Z,71.00
2022-12-03T13:11:52.461Z,82.80
2022-12-03T13:14:19.799Z,76.38
2022-12-03T13:16:51.333Z,89.85
2022-12-03T13:19:25.287Z,87.47
2022-12-03T13:21:53.706Z,95.53
2022-12-03T13:24:29.471Z,86.17
2022-12-03T13:26:56.993Z,75.28
2022-12-03T13:29:25.047Z,81.68
2022-12-03T13:31:53.162Z,89.03
2022-12-03T13:34:25.048Z,93.97
2022-12-03T13:39:42.486Z,70.38
2022-12-03T13:42:41.044Z,71.95
2022-12-03T13:45:14.212Z,65.03
2022-12-03T13:47:45.355Z,69.70
2022-12-03T13:50:33.853Z,69.60
2022-12-03T13:53:20.425Z,63.90
2022-12-03T13:55:49.629Z,65.25
2022-12-03T13:58:16.849Z,57.83
2022-12-03T14:00:44.403Z,64.70
2022-12-03T14:03:11.889Z,73.47
2022-12-03T14:05:39.215Z,74.63
2022-12-03T14:08:06.660Z,72.80
2022-12-03T14:10:34.116Z,79.95
2022-12-03T14:13:01.497Z,63.40
2022-12-03T14:15:28.802Z,68.27
2022-12-03T14:17:56.067Z,63.67
2022-12-03T14:20:23.445Z,71.80
2022-12-03T14:22:53.984Z,66.20
2022-12-03T14:25:24.997Z,60.80
2022-12-03T14:27:52.219Z,71.57
2022-12-03T14:30:19.516Z,65.60
2022-12-03T14:32:47.504Z,69.45
2022-12-03T14:35:14.924Z,70.38
2022-12-03T14:37:42.182Z,124.28
2022-12-03T14:40:09.682Z,85.97
2022-12-03T14:42:37.036Z,135.40
2022-12-03T14:45:04.689Z,92.22
2022-12-03T14:47:32.162Z,94.72
2022-12-03T14:50:00.558Z,75.53
2022-12-03T14:52:27.786Z,80.67
2022-12-03T14:54:55.194Z,76.70
2022-12-03T14:57:22.464Z,75.50
2022-12-03T14:59:49.825Z,67.35
2022-12-03T15:02:17.179Z,79.10
2022-12-03T15:04:44.492Z,69.63
2022-12-03T15:07:11.738Z,80.25
2022-12-03T15:09:39.068Z,83.80
2022-12-03T15:12:06.771Z,76.05
2022-12-03T15:14:34.124Z,83.95
2022-12-03T15:17:01.469Z,77.37
2022-12-03T15:19:28.899Z,85.18
2022-12-03T15:21:56.116Z,82.60
2022-12-03T15:24:23.410Z,89.10
2022-12-03T15:26:52.397Z,87.97
2022-12-03T15:29:20.383Z,87.67
2022-12-03T15:31:47.691Z,79.43
2022-12-03T15:34:20.343Z,94.18
2022-12-03T15:36:49.654Z,89.88
2022-12-03T15:39:16.884Z,83.95
2022-12-03T15:41:44.228Z,73.77
2022-12-03T15:44:11.449Z,91.50
2022-12-03T15:46:38.775Z,87.97
2022-12-03T15:49:06.072Z,92.55
2022-12-03T15:51:33.510Z,81.32
2022-12-03T15:54:00.819Z,85.33
2022-12-03T15:56:28.152Z,85.35
2022-12-03T15:58:55.382Z,87.70
2022-12-03T16:01:22.722Z,79.55
2022-12-03T16:03:50.023Z,82.15
2022-12-03T16:06:18.304Z,76.00
2022-12-03T16:08:46.081Z,79.70
2022-12-03T16:11:13.333Z,86.20
2022-12-03T16:13:40.587Z,78.45
2022-12-03T16:16:08.037Z,77.90
2022-12-03T16:18:35.375Z,84.10
2022-12-03T16:21:02.693Z,75.25
2022-12-03T16:23:29.912Z,70.18
2022-12-03T16:25:57.209Z,69.85
2022-12-03T16:28:24.474Z,79.38
2022-12-03T16:31:07.094Z,78.87
2022-12-03T16:33:34.552Z,80.65
2022-12-03T16:36:02.823Z,76.10
2022-12-03T16:38:31.133Z,81.47
2022-12-03T16:40:58.386Z,78.05
2022-12-03T16:43:25.958Z,79.73
2022-12-03T16:46:02.982Z,81.45
2022-12-03T16:48:30.423Z,74.07
2022-12-03T16:50:57.938Z,74.78
2022-12-03T16:53:25.307Z,73.15
2022-12-03T16:55:52.610Z,87.77
2022-12-03T16:58:21.528Z,75.70
2022-12-03T17:00:49.290Z,85.50
2022-12-03T17:03:17.965Z,84.00
2022-12-03T17:05:45.616Z,86.55
2022-12-03T17:08:13.625Z,88.17
2022-12-03T17:10:41.050Z,87.10
2022-12-03T17:13:10.119Z,92.35
2022-12-03T17:15:38.432Z,87.32
2022-12-03T17:18:06.388Z,79.25
2022-12-03T17:20:33.697Z,82.07
2022-12-03T17:23:01.249Z,89.38
2022-12-03T17:25:28.490Z,88.15
2022-12-03T17:27:55.845Z,83.50
2022-12-03T17:30:23.138Z,91.57
2022-12-03T17:32:50.603Z,81.70
2022-12-03T17:35:18.028Z,82.35
2022-12-03T17:37:45.618Z,66.00
2022-12-03T17:40:13.659Z,74.75
2022-12-03T17:42:40.955Z,74.82
2022-12-03T17:45:08.685Z,67.07
2022-12-03T17:47:35.950Z,77.28
2022-12-03T17:50:03.209Z,67.45
2022-12-03T17:52:30.543Z,73.78
2022-12-03T17:55:19.826Z,59.70
2022-12-03T17:57:45.071Z,72.10
2022-12-03T18:00:12.821Z,64.43
2022-12-03T18:02:40.961Z,73.80
2022-12-03T18:05:08.570Z,79.78
2022-12-03T18:07:35.938Z,75.93
2022-12-03T18:10:03.294Z,63.17
2022-12-03T18:12:30.660Z,70.32
2022-12-03T18:14:57.946Z,59.97
2022-12-03T18:17:25.300Z,63.17
2022-12-03T18:19:52.853Z,58.33
2022-12-03T18:22:20.610Z,66.37
2022-12-03T18:24:51.502Z,59.10
2022-12-03T18:27:22.686Z,59.13
2022-12-03T18:29:50.053Z,61.30
2022-12-03T18:32:28.269Z,69.63
2022-12-03T18:34:56.793Z,58.07
2022-12-03T18:37:26.641Z,66.20
2022-12-03T18:39:54.218Z,63.47
2022-12-03T18:42:22.996Z,64.78
2022-12-03T18:44:51.177Z,59.78
2022-12-03T18:47:20.192Z,68.67
2022-12-03T18:49:47.737Z,66.95
2022-12-03T18:52:15.899Z,71.60
2022-12-03T18:54:43.444Z,67.28
2022-12-03T18:57:10.849Z,69.28
2022-12-03T18:59:38.271Z,77.10
2022-12-03T19:02:05.852Z,71.88
2022-12-03T19:04:33.183Z,74.47
2022-12-03T19:07:00.635Z,78.05
2022-12-03T19:09:28.069Z,66.88
2022-12-03T19:11:55.352Z,72.50
2022-12-03T19:14:22.663Z,63.47
2022-12-03T19:16:50.270Z,81.47
2022-12-03T19:19:19.548Z,87.00
2022-12-03T19:21:46.785Z,76.85
2022-12-03T19:24:24.285Z,97.97
2022-12-03T19:26:55.414Z,107.57
2022-12-03T19:29:23.201Z,103.68
2022-12-03T19:31:51.306Z,107.15
2022-12-03T19:34:18.796Z,81.57
2022-12-03T19:36:46.267Z,70.77
2022-12-03T19:39:13.531Z,71.18
2022-12-03T19:41:43.259Z,90.07
2022-12-03T19:44:17.509Z,89.45
2022-12-03T19:46:44.891Z,89.40
2022-12-03T19:49:12.289Z,86.20
2022-12-03T19:51:39.646Z,89.38
2022-12-03T19:54:07.792Z,71.13
2022-12-03T19:56:35.170Z,90.72
2022-12-03T19:59:02.570Z,113.72
2022-12-03T20:01:31.706Z,88.50
2022-12-03T20:03:59.964Z,87.05
2022-12-03T20:06:29.651Z,86.28
2022-12-03T20:09:11.536Z,83.75
2022-12-03T20:11:39.526Z,98.57
2022-12-03T20:14:08.790Z,102.83
2022-12-03T20:16:36.220Z,127.55
2022-12-03T20:19:05.531Z,116.43
2022-12-03T20:21:33.793Z,102.53
2022-12-03T20:24:01.101Z,86.80
2022-12-03T20:26:28.451Z,96.93
2022-12-03T20:28:55.893Z,88.05
2022-12-03T20:31:24.877Z,92.75
2022-12-03T20:33:54.683Z,82.18
2022-12-03T20:36:22.956Z,76.15
2022-12-03T20:38:57.175Z,73.50
2022-12-03T20:41:24.543Z,86.25
2022-12-03T20:43:51.784Z,74.30
2022-12-03T20:46:21.311Z,82.90
2022-12-03T20:48:48.643Z,78.50
2022-12-03T20:51:18.074Z,76.17
2022-12-03T20:53:45.464Z,84.72
2022-12-03T20:56:20.606Z,94.90
2022-12-03T20:58:48.930Z,97.63
2022-12-03T21:01:21.003Z,77.20
2022-12-03T21:03:48.509Z,76.40
2022-12-03T21:06:16.067Z,70.13
2022-12-03T21:08:43.484Z,84.45
2022-12-03T21:11:12.224Z,85.57
2022-12-03T21:13:43.923Z,75.68
2022-12-03T21:16:26.148Z,72.17
2022-12-03T21:19:07.235Z,73.32
2022-12-03T21:21:35.538Z,80.53
2022-12-03T21:24:02.829Z,89.30
2022-12-03T21:26:30.087Z,86.05
2022-12-03T21:28:57.363Z,80.73
2022-12-03T21:31:26.006Z,88.65
2022-12-03T21:33:54.293Z,87.20
2022-12-03T21:36:21.732Z,76.60
2022-12-03T21:38:49.052Z,82.63
2022-12-03T21:41:16.316Z,88.73
2022-12-03T21:43:43.860Z,84.65
2022-12-03T21:47:08.156Z,93.65
2022-12-03T21:49:00.263Z,87.10
2022-12-03T21:51:27.471Z,86.57
2022-12-03T21:53:54.853Z,78.23
2022-12-03T21:56:22.205Z,101.55
2022-12-03T21:58:49.646Z,92.05
2022-12-03T22:01:23.791Z,90.13
2022-12-03T22:03:51.342Z,85.25
2022-12-03T22:06:18.727Z,86.80
2022-12-03T22:08:46.191Z,93.63
2022-12-03T22:11:15.613Z,87.47
2022-12-03T22:13:43.062Z,80.72
2022-12-03T22:16:11.976Z,78.60
2022-12-03T22:18:39.400Z,89.43
2022-12-03T22:21:11.951Z,79.55
2022-12-03T22:23:39.414Z,90.75
2022-12-03T22:26:08.444Z,92.95
2022-12-03T22:28:35.729Z,87.63
2022-12-03T22:31:07.110Z,86.57
2022-12-03T22:33:35.002Z,92.07
2022-12-03T22:36:04.073Z,93.90
2022-12-03T22:38:31.490Z,94.35
2022-12-03T22:40:58.886Z,89.88
2022-12-03T22:43:26.184Z,100.23
2022-12-03T22:45:54.880Z,91.93
2022-12-03T22:48:22.979Z,88.53
2022-12-03T22:50:50.986Z,81.30
2022-12-03T22:53:18.504Z,89.05
2022-12-03T22:55:58.009Z,89.77
2022-12-03T22:58:25.892Z,81.63
2022-12-03T23:00:53.117Z,95.57
2022-12-03T23:03:20.473Z,102.60
2022-12-03T23:05:47.752Z,88.78
2022-12-03T23:08:17.475Z,85.73
2022-12-03T23:10:46.576Z,78.53
2022-12-03T23:13:13.864Z,86.35
2022-12-03T23:15:51.357Z,72.80
2022-12-03T23:18:19.309Z,92.20
2022-12-03T23:20:51.365Z,89.77
2022-12-03T23:23:19.581Z,96.43
2022-12-03T23:26:16.453Z,94.63
2022-12-03T23:28:44.934Z,88.28
2022-12-03T23:31:27.392Z,92.65
2022-12-03T23:33:55.076Z,92.07
2022-12-03T23:36:22.390Z,83.50
2022-12-03T23:38:49.863Z,66.13
2022-12-03T23:41:19.141Z,81.45
2022-12-03T23:43:46.660Z,84.47
2022-12-03T23:46:18.670Z,92.47
2022-12-03T23:48:46.194Z,83.15
2022-12-03T23:51:14.985Z,81.47
2022-12-03T23:53:42.411Z,79.28
2022-12-03T23:56:11.492Z,85.55
2022-12-03T23:58:38.858Z,88.57
